Time;durP1;ratioP1;P1;durP2;ratioP2;P2;SDS_P1;SDS_P2;PMS_P1;PMS_P2;Temp;Humidity;BMP_temperature;BMP_pressure;BME280_temperature;BME280_humidity;BME280_pressure;Samples;Min_cycle;Max_cycle;Signal;HPM_P1;HPM_P2
2024/04/05 00:01:29;;;;;;;18.87;7.50;;;;;;;12.82;53.18;100554.83;123310;1099;104361;-71
2024/04/05 00:04:03;;;;;;;19.60;7.60;;;;;;;12.84;53.57;100550.52;123388;1099;104274;-72
2024/04/05 00:06:34;;;;;;;17.30;7.45;;;;;;;12.84;53.60;100555.79;123180;1099;104281;-73
2024/04/05 00:09:04;;;;;;;19.67;7.60;;;;;;;12.89;53.64;100546.27;123288;1099;104501;-72
2024/04/05 00:11:34;;;;;;;17.93;7.47;;;;;;;12.93;53.81;100556.04;123236;1099;104350;-71
2024/04/05 00:14:05;;;;;;;23.30;7.60;;;;;;;12.99;53.46;100557.05;123122;1098;104344;-72
2024/04/05 00:16:35;;;;;;;19.17;7.67;;;;;;;12.97;53.57;100553.48;123191;1099;104283;-73
2024/04/05 00:19:09;;;;;;;18.00;7.60;;;;;;;12.90;53.23;100555.95;123121;1099;104348;-71
2024/04/05 00:21:39;;;;;;;21.40;8.03;;;;;;;12.84;53.75;100555.79;123304;1098;104242;-71
2024/04/05 00:24:09;;;;;;;18.30;7.60;;;;;;;12.76;53.86;100559.93;123386;1098;104355;-71
2024/04/05 00:26:39;;;;;;;14.53;7.00;;;;;;;12.72;53.49;100558.96;123456;1099;104357;-71
2024/04/05 00:29:11;;;;;;;21.23;8.40;;;;;;;12.65;54.31;100550.84;123486;1099;104283;-72
2024/04/05 00:31:41;;;;;;;22.40;8.27;;;;;;;12.56;54.22;100562.91;123457;1098;104348;-71
2024/04/05 00:34:11;;;;;;;21.70;8.40;;;;;;;12.50;54.37;100562.73;123380;1099;104329;-72
2024/04/05 00:36:41;;;;;;;20.53;7.97;;;;;;;12.45;54.43;100561.72;123459;1098;104354;-72
2024/04/05 00:39:12;;;;;;;21.77;7.70;;;;;;;12.38;54.55;100555.36;123457;1099;104348;-70
2024/04/05 00:41:42;;;;;;;19.53;7.93;;;;;;;12.37;54.88;100564.12;123345;1098;104348;-71
2024/04/05 00:44:14;;;;;;;21.20;8.23;;;;;;;12.32;54.83;100549.03;123141;1099;104290;-73
2024/04/05 00:46:44;;;;;;;19.67;7.70;;;;;;;12.28;55.11;100552.41;122993;1099;104791;-71
2024/04/05 00:49:15;;;;;;;22.17;7.73;;;;;;;12.21;54.74;100554.86;123129;1099;104350;-72
2024/04/05 00:51:45;;;;;;;22.07;7.97;;;;;;;12.18;55.03;100560.03;123225;1099;104324;-71
2024/04/05 00:54:16;;;;;;;18.83;7.87;;;;;;;12.15;55.02;100553.80;123298;1099;104297;-73
2024/04/05 00:56:46;;;;;;;19.65;7.55;;;;;;;12.14;55.00;100555.55;123412;1098;104468;-70
2024/04/05 00:59:17;;;;;;;23.23;7.77;;;;;;;12.12;55.24;100556.33;123418;1099;104309;-71
2024/04/05 01:01:48;;;;;;;20.75;7.95;;;;;;;12.09;55.15;100550.98;123299;1099;104315;-72
2024/04/05 01:04:19;;;;;;;20.13;7.50;;;;;;;12.07;55.08;100548.30;123160;1099;104460;-73
2024/04/05 01:06:49;;;;;;;22.00;8.00;;;;;;;12.08;55.38;100544.84;123462;1099;104325;-72
2024/04/05 01:09:20;;;;;;;17.85;7.15;;;;;;;12.11;55.82;100544.93;123392;1096;104365;-72
2024/04/05 01:11:58;;;;;;;17.30;7.27;;;;;;;12.14;55.46;100545.02;123373;1099;104696;-72
2024/04/05 01:14:28;;;;;;;20.00;7.53;;;;;;;12.17;55.35;100549.45;123482;1099;104268;-71
2024/04/05 01:16:59;;;;;;;22.35;7.45;;;;;;;12.20;55.50;100544.29;123355;1099;104405;-71
2024/04/05 01:19:31;;;;;;;18.53;7.90;;;;;;;12.19;55.51;100551.30;123492;1099;104274;-71
2024/04/05 01:22:04;;;;;;;22.53;8.00;;;;;;;12.16;55.55;100551.20;123383;1098;104319;-71
2024/04/05 01:24:34;;;;;;;20.97;8.17;;;;;;;12.10;55.68;100551.02;123058;1102;107007;-72
2024/04/05 01:27:05;;;;;;;22.37;8.20;;;;;;;12.05;55.79;100547.38;123464;1099;104392;-72
2024/04/05 01:29:35;;;;;;;22.15;8.45;;;;;;;12.00;55.69;100544.60;123079;1099;104353;-71
2024/04/05 01:32:06;;;;;;;22.27;8.23;;;;;;;12.00;55.69;100544.60;123459;1099;104267;-72
2024/04/05 01:34:36;;;;;;;23.63;7.27;;;;;;;12.02;56.01;100544.65;123353;1098;118917;-71
2024/04/05 01:37:07;;;;;;;20.80;7.87;;;;;;;12.03;56.04;100556.97;123166;1099;104338;-71
2024/04/05 01:39:38;;;;;;;21.27;8.03;;;;;;;12.04;56.06;100559.64;123448;1099;104252;-72
2024/04/05 01:42:08;;;;;;;18.97;7.70;;;;;;;12.04;55.83;100558.73;123338;1099;104223;-72
2024/04/05 01:44:39;;;;;;;19.97;8.13;;;;;;;12.02;56.04;100558.68;123402;1099;104365;-72
2024/04/05 01:47:10;;;;;;;18.90;7.97;;;;;;;12.01;56.41;100562.18;123141;1099;104343;-71
2024/04/05 01:49:40;;;;;;;20.55;8.35;;;;;;;12.00;56.37;100562.13;123144;1099;104376;-71
2024/04/05 01:52:10;;;;;;;20.90;8.27;;;;;;;11.96;56.32;100562.87;123079;1099;104249;-74
2024/04/05 01:54:40;;;;;;;22.17;9.37;;;;;;;11.92;56.56;100563.57;123073;1097;104366;-73
2024/04/05 01:57:11;;;;;;;22.20;8.43;;;;;;;11.91;56.37;100567.06;123106;1099;104300;-72
2024/04/05 01:59:46;;;;;;;19.97;9.03;;;;;;;11.87;56.34;100560.80;123111;1102;104287;-72
2024/04/05 02:02:17;;;;;;;20.43;8.87;;;;;;;11.85;56.47;100562.50;123011;1102;104448;-72
2024/04/05 02:04:51;;;;;;;22.47;8.67;;;;;;;11.83;56.84;100566.83;123205;1099;104715;-72
2024/04/05 02:07:22;;;;;;;21.73;8.17;;;;;;;11.79;56.82;100565.81;123431;1099;104619;-72
2024/04/05 02:09:53;;;;;;;23.05;7.40;;;;;;;11.76;56.65;100576.23;123227;1099;104814;-72
2024/04/05 02:12:25;;;;;;;18.67;7.57;;;;;;;11.72;56.92;100568.19;123118;1099;104329;-72
2024/04/05 02:14:55;;;;;;;21.10;7.77;;;;;;;11.64;56.96;100578.45;123044;1102;104386;-71
2024/04/05 02:17:25;;;;;;;17.73;8.07;;;;;;;11.54;57.02;100576.39;123199;1099;104428;-72
2024/04/05 02:19:56;;;;;;;21.13;8.20;;;;;;;11.46;57.08;100578.77;123094;1102;104687;-72
2024/04/05 02:22:26;;;;;;;25.67;10.57;;;;;;;11.38;57.48;100575.88;123090;1100;104331;-72
2024/04/05 02:24:56;;;;;;;24.30;11.30;;;;;;;11.32;57.49;100581.81;123118;1099;104327;-72
2024/04/05 02:27:27;;;;;;;21.27;9.20;;;;;;;11.28;57.95;100581.65;123280;1099;104329;-72
2024/04/05 02:29:57;;;;;;;19.40;7.30;;;;;;;11.28;57.30;100589.53;123173;1099;104280;-72
2024/04/05 02:32:27;;;;;;;19.30;7.80;;;;;;;11.27;57.81;100585.14;123135;1099;104245;-72
2024/04/05 02:34:58;;;;;;;17.85;7.40;;;;;;;11.26;58.00;100592.11;123091;1099;104281;-72
2024/04/05 02:37:28;;;;;;;20.33;8.43;;;;;;;11.20;58.11;100591.02;123295;1099;104342;-71
2024/04/05 02:39:58;;;;;;;18.93;7.80;;;;;;;11.12;58.05;100596.87;123410;1099;104396;-71
2024/04/05 02:42:29;;;;;;;18.30;7.80;;;;;;;11.07;58.14;100603.71;123133;1099;104322;-72
2024/04/05 02:44:59;;;;;;;20.17;8.03;;;;;;;11.09;58.21;100599.40;123171;1099;104680;-72
2024/04/05 02:47:29;;;;;;;19.15;7.45;;;;;;;11.07;58.48;100593.20;123117;1099;104380;-72
2024/04/05 02:50:00;;;;;;;15.23;6.93;;;;;;;11.07;58.30;100593.20;123120;1097;105077;-72
2024/04/05 02:52:31;;;;;;;18.27;7.70;;;;;;;11.08;58.46;100597.63;123111;1102;104395;-73
2024/04/05 02:55:01;;;;;;;22.03;8.10;;;;;;;11.07;58.82;100593.20;123112;1099;104300;-72
2024/04/05 02:57:31;;;;;;;19.00;7.77;;;;;;;11.06;58.48;100601.03;123439;1099;104246;-73
2024/04/05 03:00:02;;;;;;;25.90;8.43;;;;;;;10.98;58.93;100590.26;123406;1099;104354;-71
2024/04/05 03:02:32;;;;;;;28.23;8.37;;;;;;;10.89;58.58;100597.80;123210;1099;104303;-72
2024/04/05 03:05:03;;;;;;;26.03;8.50;;;;;;;10.83;59.13;100597.58;123313;1099;104561;-72
2024/04/05 03:07:34;;;;;;;24.07;8.43;;;;;;;10.77;58.79;100596.53;123210;1099;104255;-72
2024/04/05 03:10:05;;;;;;;20.07;7.27;;;;;;;10.70;59.28;100597.13;123068;1099;104351;-71
2024/04/05 03:12:36;;;;;;;23.00;8.17;;;;;;;10.62;59.05;100595.97;123108;1099;104290;-71
2024/04/05 03:15:09;;;;;;;19.30;7.73;;;;;;;10.54;59.53;100610.54;123255;1098;104252;-72
2024/04/05 03:17:40;;;;;;;18.52;7.25;;;;;;;10.46;59.24;100610.25;123064;1099;104392;-72
2024/04/05 03:20:12;;;;;;;17.87;7.47;;;;;;;10.43;59.59;100610.13;123108;1099;104274;-72
2024/04/05 03:22:43;;;;;;;21.93;8.00;;;;;;;10.38;59.58;100607.34;123113;1099;104348;-72
2024/04/05 03:25:13;;;;;;;22.57;8.07;;;;;;;10.35;59.58;100611.58;123189;1099;104277;-72
2024/04/05 03:27:43;;;;;;;22.70;9.20;;;;;;;10.32;60.57;100614.94;123897;1099;104338;-71
2024/04/05 03:30:14;;;;;;;23.97;10.13;;;;;;;10.28;60.04;100620.00;123572;1099;104340;-72
2024/04/05 03:32:44;;;;;;;19.50;8.80;;;;;;;10.20;60.04;100622.33;123414;1099;104277;-72
2024/04/05 03:35:15;;;;;;;20.07;8.60;;;;;;;10.16;60.31;100625.64;123322;1099;104274;-72
2024/04/05 03:37:48;;;;;;;21.37;8.87;;;;;;;10.17;60.33;100635.31;123192;1099;104277;-72
2024/04/05 03:40:18;;;;;;;20.67;8.70;;;;;;;10.20;60.37;100631.08;123355;1099;104288;-72
2024/04/05 03:42:48;;;;;;;19.73;8.67;;;;;;;10.23;60.51;100627.69;123310;1099;104418;-72
2024/04/05 03:45:21;;;;;;;17.85;7.70;;;;;;;10.25;59.99;100637.41;123146;1099;104361;-72
2024/04/05 03:47:51;;;;;;;20.95;7.75;;;;;;;10.24;60.32;100632.11;123418;1099;104682;-71
2024/04/05 03:50:21;;;;;;;23.00;7.50;;;;;;;10.19;60.08;100636.26;123437;1099;104287;-72
2024/04/05 03:52:52;;;;;;;21.57;7.50;;;;;;;10.19;60.45;100636.26;123436;1099;104534;-72
2024/04/05 03:55:22;;;;;;;24.10;7.70;;;;;;;10.20;60.33;100636.31;123383;1099;104354;-72
2024/04/05 03:57:53;;;;;;;25.40;7.77;;;;;;;10.22;61.00;100641.63;123413;1099;104341;-72
2024/04/05 04:00:23;;;;;;;27.10;7.50;;;;;;;10.22;60.85;100645.16;123441;1099;104276;-72
2024/04/05 04:02:55;;;;;;;19.40;7.73;;;;;;;10.23;60.66;100648.67;123456;1099;104271;-72
2024/04/05 04:05:25;;;;;;;19.10;7.77;;;;;;;10.19;60.74;100662.48;123454;1099;104654;-72
2024/04/05 04:07:55;;;;;;;20.27;7.57;;;;;;;10.16;61.18;100665.90;123472;1099;104385;-71
2024/04/05 04:10:28;;;;;;;19.20;7.00;;;;;;;10.14;60.76;100659.67;123457;1099;104315;-71
2024/04/05 04:12:58;;;;;;;18.50;7.40;;;;;;;10.18;60.81;100665.95;123187;1099;104325;-71
2024/04/05 04:15:29;;;;;;;20.87;7.30;;;;;;;10.16;61.70;100673.77;123567;1099;104393;-72
2024/04/05 04:17:59;;;;;;;18.70;7.73;;;;;;;10.12;61.59;100679.70;123292;1099;104319;-71
2024/04/05 04:20:30;;;;;;;18.10;7.10;;;;;;;10.10;61.25;100667.36;123453;1099;104370;-71
2024/04/05 04:23:00;;;;;;;19.27;7.83;;;;;;;10.10;61.41;100668.27;123701;1099;104277;-72
2024/04/05 04:25:30;;;;;;;18.47;7.67;;;;;;;10.12;61.55;100673.58;123671;1099;104344;-71
2024/04/05 04:28:01;;;;;;;22.27;8.47;;;;;;;10.13;61.80;100677.97;123331;1099;104405;-71
2024/04/05 04:30:32;;;;;;;20.07;8.27;;;;;;;10.14;61.94;100679.77;123564;1099;104355;-71
2024/04/05 04:33:03;;;;;;;18.63;7.90;;;;;;;10.13;61.90;100681.51;123362;1099;104345;-71
2024/04/05 04:35:33;;;;;;;19.17;8.03;;;;;;;10.16;62.37;100683.34;123374;1099;104322;-72
2024/04/05 04:38:04;;;;;;;19.27;7.83;;;;;;;10.18;62.17;100679.95;123647;1099;104271;-71
2024/04/05 04:40:34;;;;;;;21.17;7.53;;;;;;;10.20;62.43;100674.77;123617;1099;104169;-72
2024/04/05 04:43:05;;;;;;;20.03;7.93;;;;;;;10.23;62.21;100678.40;123562;1099;104313;-71
2024/04/05 04:45:35;;;;;;;19.93;7.40;;;;;;;10.30;62.33;100684.81;123550;1099;104396;-71
2024/04/05 04:48:07;;;;;;;20.83;7.83;;;;;;;10.35;62.71;100688.53;123291;1099;104242;-71
2024/04/05 04:50:37;;;;;;;20.43;7.73;;;;;;;10.42;62.18;100687.03;123257;1099;104354;-72
2024/04/05 04:53:07;;;;;;;17.30;7.43;;;;;;;10.49;62.61;100690.81;123450;1099;104169;-70
2024/04/05 04:55:39;;;;;;;20.43;7.93;;;;;;;10.54;62.15;100689.25;123526;1099;104410;-70
2024/04/05 04:58:11;;;;;;;18.00;7.80;;;;;;;10.62;62.74;100695.69;123518;1099;104224;-71
2024/04/05 05:00:41;;;;;;;18.23;8.33;;;;;;;10.66;63.05;100697.60;123634;1097;104345;-71
2024/04/05 05:03:12;;;;;;;20.85;8.20;;;;;;;10.70;62.84;100688.98;123492;1099;104380;-72
2024/04/05 05:05:43;;;;;;;23.67;8.50;;;;;;;10.79;62.89;100689.34;123493;1099;104252;-71
2024/04/05 05:08:13;;;;;;;24.93;8.73;;;;;;;10.91;62.93;100693.29;123706;1099;104333;-71
2024/04/05 05:10:44;;;;;;;43.57;10.73;;;;;;;11.03;63.06;100699.00;123431;1099;104242;-71
2024/04/05 05:13:14;;;;;;;22.73;8.63;;;;;;;11.13;62.48;100694.97;123370;1099;104753;-71
2024/04/05 05:15:45;;;;;;;21.20;8.27;;;;;;;11.24;62.91;100695.36;123347;1099;104268;-71
2024/04/05 05:18:15;;;;;;;20.83;7.97;;;;;;;11.32;62.68;100701.77;123472;1099;104271;-71
2024/04/05 05:20:52;;;;;;;23.90;9.17;;;;;;;11.40;63.02;100697.67;123776;1099;104398;-71
2024/04/05 05:23:23;;;;;;;22.97;8.53;;;;;;;11.48;63.02;100698.86;123876;1099;104903;-72
2024/04/05 05:25:53;;;;;;;19.67;8.50;;;;;;;11.56;62.95;100698.22;124087;1099;104201;-71
2024/04/05 05:28:23;;;;;;;23.70;7.93;;;;;;;11.64;63.02;100705.54;124119;1099;104178;-72
2024/04/05 05:30:54;;;;;;;20.17;8.23;;;;;;;11.71;63.05;100706.63;124112;1099;104386;-71
2024/04/05 05:33:24;;;;;;;19.33;7.53;;;;;;;11.81;62.39;100703.49;124086;1099;104204;-72
2024/04/05 05:36:10;;;;;;;19.30;6.97;;;;;;;11.93;62.86;100707.40;124176;1099;104451;-72
2024/04/05 05:38:43;;;;;;;21.13;7.13;;;;;;;12.04;63.14;100704.30;124070;1099;104254;-71
2024/04/05 05:41:13;;;;;;;21.02;7.22;;;;;;;12.16;63.01;100716.94;123743;1099;104328;-71
2024/04/05 05:43:44;;;;;;;21.07;7.17;;;;;;;12.23;62.97;100716.30;123958;1099;104201;-72
2024/04/05 05:46:14;;;;;;;17.97;7.07;;;;;;;12.31;62.81;100716.55;124148;1099;104172;-71
2024/04/05 05:48:44;;;;;;;19.80;7.07;;;;;;;12.41;62.72;100725.63;124068;1099;104262;-72
2024/04/05 05:51:16;;;;;;;18.33;7.17;;;;;;;12.50;62.82;100725.92;124174;1099;104408;-71
2024/04/05 05:53:47;;;;;;;18.07;6.83;;;;;;;12.60;62.72;100729.72;124177;1099;104191;-71
2024/04/05 05:56:18;;;;;;;19.40;7.57;;;;;;;12.68;62.90;100729.95;124242;1099;105401;-72
2024/04/05 05:58:51;;;;;;;19.50;7.00;;;;;;;12.77;62.95;100735.51;123888;1099;104354;-71
2024/04/05 06:01:22;;;;;;;15.37;6.30;;;;;;;12.84;62.44;100726.95;124020;1099;104258;-73
2024/04/05 06:03:53;;;;;;;19.80;6.10;;;;;;;12.92;62.32;100727.19;124088;1099;104239;-72
2024/04/05 06:06:25;;;;;;;16.20;5.60;;;;;;;13.01;62.57;100727.46;124470;1099;102254;-74
2024/04/05 06:08:59;;;;;;;13.67;5.93;;;;;;;13.09;62.31;100727.69;124246;1099;104245;-73
2024/04/05 06:11:42;;;;;;;17.60;5.87;;;;;;;13.21;62.04;100727.12;124611;1099;104169;-73
2024/04/05 06:14:13;;;;;;;17.02;5.62;;;;;;;13.31;62.25;100722.16;124334;1098;104900;-73
2024/04/05 06:16:48;;;;;;;14.55;5.00;;;;;;;13.45;62.29;100726.98;124220;1099;104260;-73
2024/04/05 06:19:21;;;;;;;11.65;4.90;;;;;;;13.58;61.69;100723.80;124329;1099;104179;-70
2024/04/05 06:21:52;;;;;;;16.37;5.37;;;;;;;13.70;61.97;100722.34;124350;1099;103276;-71
2024/04/05 06:24:22;;;;;;;13.37;4.83;;;;;;;13.88;61.79;100724.58;124224;1099;102326;-72
2024/04/05 06:26:53;;;;;;;13.03;4.53;;;;;;;14.03;61.95;100725.85;124239;1099;104512;-72
2024/04/05 06:29:23;;;;;;;10.23;4.60;;;;;;;14.18;61.02;100733.27;124214;1099;103543;-73
2024/04/05 06:31:53;;;;;;;11.93;5.20;;;;;;;14.31;61.75;100731.81;124272;1098;104166;-73
2024/04/05 06:34:24;;;;;;;12.90;4.67;;;;;;;14.45;60.73;100731.27;124425;1099;104243;-72
2024/04/05 06:36:54;;;;;;;18.63;5.97;;;;;;;14.63;61.45;100733.45;124173;1099;104299;-72
2024/04/05 06:39:24;;;;;;;13.00;5.77;;;;;;;14.80;61.07;100731.20;124334;1099;105723;-72
2024/04/05 06:41:55;;;;;;;15.57;4.70;;;;;;;14.95;61.16;100733.30;124374;1099;104245;-71
2024/04/05 06:44:31;;;;;;;15.10;4.43;;;;;;;15.10;60.43;100739.79;124537;1099;104246;-72
2024/04/05 06:47:05;;;;;;;15.73;5.00;;;;;;;15.24;60.58;100744.48;124220;1099;104191;-72
2024/04/05 06:49:37;;;;;;;14.87;4.62;;;;;;;15.35;60.15;100736.73;124500;1099;104229;-71
2024/04/05 06:52:11;;;;;;;9.97;4.37;;;;;;;15.51;60.39;100740.60;124182;1102;104389;-71
2024/04/05 06:54:51;;;;;;;19.17;5.10;;;;;;;15.64;60.16;100742.59;125648;1099;102621;-74
2024/04/05 06:57:34;;;;;;;21.03;5.13;;;;;;;15.77;59.44;100744.66;126014;1098;104261;-72
2024/04/05 07:00:20;;;;;;;18.70;4.43;;;;;;;15.90;59.94;100756.34;123920;1099;104316;-71
2024/04/05 07:02:51;;;;;;;16.47;4.60;;;;;;;16.05;58.83;100753.09;123876;1099;104269;-73
2024/04/05 07:05:35;;;;;;;12.30;4.27;;;;;;;16.21;59.10;100756.88;124174;1099;104245;-73
2024/04/05 07:08:16;;;;;;;13.47;4.00;;;;;;;16.36;58.96;100761.52;124194;1099;104332;-72
2024/04/05 07:10:51;;;;;;;13.50;4.43;;;;;;;16.50;58.94;100757.36;124023;1099;104255;-74
2024/04/05 07:13:21;;;;;;;12.87;4.23;;;;;;;16.68;58.53;100756.73;124007;1099;104300;-71
2024/04/05 07:15:52;;;;;;;8.23;3.70;;;;;;;16.88;58.13;100750.88;124006;1099;104703;-71
2024/04/05 07:18:24;;;;;;;18.95;4.55;;;;;;;17.03;58.07;100748.43;124228;1099;104347;-72
2024/04/05 07:20:56;;;;;;;9.97;3.70;;;;;;;17.16;57.81;100753.89;124189;1099;104302;-73
2024/04/05 07:23:29;;;;;;;13.70;3.80;;;;;;;17.26;56.98;100755.77;124309;1099;104386;-72
2024/04/05 07:26:02;;;;;;;6.80;3.10;;;;;;;17.38;57.18;100752.39;124343;1099;104383;-71
2024/04/05 07:28:34;;;;;;;8.30;3.33;;;;;;;17.46;56.20;100741.87;124236;1099;104255;-71
2024/04/05 07:31:05;;;;;;;7.95;3.20;;;;;;;17.66;56.32;100750.05;124158;1099;104169;-72
2024/04/05 07:33:35;;;;;;;6.27;2.70;;;;;;;17.80;55.95;100745.77;123932;1099;104198;-72
2024/04/05 07:36:12;;;;;;;6.50;3.10;;;;;;;18.01;54.88;100752.19;124133;1099;104173;-72
2024/04/05 07:38:42;;;;;;;12.03;3.67;;;;;;;18.18;55.27;100737.28;124414;1099;104258;-71
2024/04/05 07:41:13;;;;;;;8.53;3.30;;;;;;;18.33;54.52;100744.50;124132;1099;104226;-72
2024/04/05 07:43:46;;;;;;;7.60;3.27;;;;;;;18.46;55.08;100742.81;124100;1099;104172;-72
2024/04/05 07:46:16;;;;;;;7.93;3.53;;;;;;;18.60;53.93;100738.47;124216;1099;104207;-72
2024/04/05 07:48:50;;;;;;;5.80;3.00;;;;;;;18.71;54.23;100741.20;124542;1099;104242;-72
2024/04/05 07:51:20;;;;;;;9.38;3.15;;;;;;;18.77;54.07;100735.92;124330;1099;104220;-73
2024/04/05 07:53:54;;;;;;;6.63;2.93;;;;;;;18.73;52.96;100733.23;124279;1099;104232;-72
2024/04/05 07:56:27;;;;;;;6.63;2.20;;;;;;;18.79;53.42;100739.50;124163;1099;104470;-71
2024/04/05 07:58:57;;;;;;;3.60;2.00;;;;;;;18.90;53.19;100731.63;124271;1099;104256;-72
2024/04/05 08:01:28;;;;;;;6.17;2.00;;;;;;;19.08;51.97;100737.91;124154;1099;104300;-70
2024/04/05 08:04:00;;;;;;;5.13;2.17;;;;;;;19.22;51.43;100736.19;123835;1100;104243;-71
2024/04/05 08:06:30;;;;;;;11.73;2.20;;;;;;;19.27;51.24;100737.08;124185;1099;104284;-72
2024/04/05 08:09:00;;;;;;;9.20;2.70;;;;;;;19.37;51.12;100738.02;123875;1099;104351;-71
2024/04/05 08:11:33;;;;;;;7.43;2.67;;;;;;;19.44;50.56;100733.59;124041;1099;104166;-71
2024/04/05 08:14:11;;;;;;;15.47;2.70;;;;;;;19.46;50.79;100729.16;124425;1099;104254;-71
2024/04/05 08:16:46;;;;;;;7.87;3.00;;;;;;;19.53;49.63;100728.30;124268;1099;104679;-72
2024/04/05 08:19:18;;;;;;;9.00;2.80;;;;;;;19.64;49.03;100729.20;123829;1099;104240;-71
2024/04/05 08:21:48;;;;;;;6.20;2.57;;;;;;;19.72;50.04;100723.91;124250;1099;102500;-72
2024/04/05 08:24:19;;;;;;;7.10;2.83;;;;;;;19.81;50.07;100721.28;124138;1099;104274;-72
2024/04/05 08:26:49;;;;;;;10.70;3.15;;;;;;;19.97;48.96;100724.84;123931;1099;104271;-71
2024/04/05 08:29:23;;;;;;;9.07;2.97;;;;;;;20.07;49.53;100728.39;124060;1099;104841;-71
2024/04/05 08:31:55;;;;;;;11.90;3.17;;;;;;;20.08;49.10;100722.19;123957;1099;104273;-71
2024/04/05 08:34:26;;;;;;;5.53;2.70;;;;;;;20.14;48.91;100731.97;124203;1099;104542;-71
2024/04/05 08:36:57;;;;;;;6.03;2.33;;;;;;;20.15;48.02;100721.31;124208;1099;104193;-71
2024/04/05 08:39:28;;;;;;;5.93;2.50;;;;;;;20.16;47.86;100715.08;124081;1099;104268;-73
2024/04/05 08:42:06;;;;;;;7.10;2.70;;;;;;;20.24;47.85;100723.06;124013;1099;104817;-71
2024/04/05 08:44:39;;;;;;;8.87;2.73;;;;;;;20.31;46.95;100727.52;124066;1099;104396;-72
2024/04/05 08:47:10;;;;;;;6.97;2.33;;;;;;;20.47;46.84;100723.95;123745;1099;104427;-72
2024/04/05 08:49:40;;;;;;;2.90;1.93;;;;;;;20.56;46.57;100722.16;124138;1099;104248;-71
2024/04/05 08:52:11;;;;;;;6.00;2.40;;;;;;;20.62;46.82;100714.14;124165;1099;104245;-71
2024/04/05 08:54:47;;;;;;;3.83;2.23;;;;;;;20.61;46.41;100723.02;124136;1099;104249;-71
2024/04/05 08:57:19;;;;;;;3.13;2.00;;;;;;;20.53;45.76;100723.03;124257;1099;104181;-73
2024/04/05 08:59:56;;;;;;;6.50;2.50;;;;;;;20.49;45.64;100715.95;124142;1099;104351;-73
2024/04/05 09:02:38;;;;;;;9.30;2.53;;;;;;;20.47;45.07;100723.95;126738;1098;102085;-72
2024/04/05 09:05:13;;;;;;;7.83;2.50;;;;;;;20.52;45.60;100718.62;124087;1099;104284;-73
2024/04/05 09:07:44;;;;;;;7.33;2.53;;;;;;;20.56;44.62;100703.50;124423;1098;104268;-72
2024/04/05 09:10:16;;;;;;;6.57;2.90;;;;;;;20.69;44.88;100704.38;124238;1099;104331;-72
2024/04/05 09:12:52;;;;;;;4.47;2.57;;;;;;;20.83;44.02;100702.55;124008;1099;104197;-73
2024/04/05 09:15:25;;;;;;;8.20;2.90;;;;;;;20.68;44.60;100702.59;124232;1099;104341;-71
2024/04/05 09:17:56;;;;;;;6.87;3.70;;;;;;;20.51;44.53;100700.84;124400;1099;103115;-71
2024/04/05 09:20:30;;;;;;;8.65;2.90;;;;;;;20.58;44.41;100697.25;124457;1099;101910;-72
2024/04/05 09:23:10;;;;;;;7.53;2.77;;;;;;;20.70;43.60;100699.05;123970;1099;104266;-72
2024/04/05 09:25:41;;;;;;;4.07;2.40;;;;;;;20.85;44.05;100694.55;123769;1102;104307;-73
2024/04/05 09:28:20;;;;;;;3.70;2.90;;;;;;;20.93;43.74;100690.97;123928;1102;104357;-73
2024/04/05 09:30:59;;;;;;;5.67;2.43;;;;;;;21.02;44.14;100687.39;124188;1099;101958;-72
2024/04/05 09:33:29;;;;;;;8.17;3.00;;;;;;;21.19;43.07;100688.19;124276;1098;104270;-72
2024/04/05 09:36:01;;;;;;;4.50;2.70;;;;;;;21.23;43.54;100683.71;124185;1099;104242;-71
2024/04/05 09:38:34;;;;;;;7.53;2.50;;;;;;;21.31;42.08;100692.55;124258;1099;104169;-71
2024/04/05 09:41:06;;;;;;;6.20;2.70;;;;;;;21.39;42.16;100687.17;124213;1099;104191;-72
2024/04/05 09:43:38;;;;;;;5.13;2.27;;;;;;;21.43;42.18;100688.94;124107;1099;104254;-71
2024/04/05 09:46:11;;;;;;;9.07;3.00;;;;;;;21.39;42.34;100689.84;124016;1099;104281;-72
2024/04/05 09:48:42;;;;;;;3.12;2.15;;;;;;;21.44;42.48;100685.39;124068;1099;104264;-72
2024/04/05 09:51:19;;;;;;;3.73;2.07;;;;;;;21.46;42.61;100685.38;124589;1098;104236;-73
2024/04/05 09:53:52;;;;;;;5.23;2.30;;;;;;;21.41;42.03;100684.50;123824;1099;104172;-73
2024/04/05 09:56:27;;;;;;;7.87;2.50;;;;;;;21.29;42.32;100689.02;124168;1099;104220;-73
2024/04/05 09:59:01;;;;;;;4.17;2.30;;;;;;;21.18;41.52;100691.73;123992;1099;104234;-72
2024/04/05 10:01:38;;;;;;;5.10;2.23;;;;;;;21.21;41.98;100695.28;124222;1099;104280;-72
2024/04/05 10:04:11;;;;;;;6.03;2.60;;;;;;;21.27;41.82;100692.58;124518;1099;104238;-71
2024/04/05 10:06:43;;;;;;;4.63;2.50;;;;;;;21.33;41.63;100688.12;124287;1099;104223;-73
2024/04/05 10:09:21;;;;;;;5.95;2.40;;;;;;;21.36;42.14;100698.78;124263;1099;104284;-73
2024/04/05 10:11:52;;;;;;;4.05;2.35;;;;;;;21.39;42.09;100699.64;126897;1099;101517;-73
2024/04/05 10:14:26;;;;;;;6.67;2.40;;;;;;;21.45;41.17;100702.28;126839;1099;103476;-72
2024/04/05 10:17:11;;;;;;;5.13;2.57;;;;;;;21.57;41.08;100701.37;126814;1098;102316;-74
2024/04/05 10:19:45;;;;;;;4.37;2.60;;;;;;;21.82;40.97;100700.28;126858;1099;102127;-72
2024/04/05 10:22:19;;;;;;;3.90;2.40;;;;;;;21.97;40.90;100706.39;124474;1099;104297;-73
2024/04/05 10:24:47;;;;;;;;;;;;;;;21.98;40.14;100702.83;124654;1099;104267;-73
2024/04/05 10:27:28;;;;;;;9.20;2.60;;;;;;;22.01;40.74;100702.81;124336;1099;104226;-73
2024/04/05 10:30:03;;;;;;;7.08;2.42;;;;;;;21.95;40.54;100705.53;124387;1099;104185;-73
2024/04/05 10:32:36;;;;;;;6.47;2.30;;;;;;;21.92;40.89;100702.88;123834;1099;104172;-73
2024/04/05 10:35:11;;;;;;;8.30;2.50;;;;;;;21.97;40.47;100709.97;124308;1099;104280;-74
2024/04/05 10:37:43;;;;;;;6.35;2.90;;;;;;;22.00;40.94;100711.71;124342;1099;104242;-72
2024/04/05 10:40:15;;;;;;;6.90;2.97;;;;;;;21.97;40.50;100709.06;124038;1099;104341;-72
2024/04/05 10:42:46;;;;;;;7.53;2.50;;;;;;;21.98;40.15;100708.18;124536;1098;104349;-72
2024/04/05 10:45:22;;;;;;;11.80;2.57;;;;;;;22.02;40.51;100699.25;124050;1099;104230;-72
2024/04/05 10:47:54;;;;;;;5.80;2.60;;;;;;;21.99;39.99;100701.95;124044;1099;104182;-71
2024/04/05 10:50:25;;;;;;;7.03;2.70;;;;;;;21.97;39.65;100701.05;123875;1102;103792;-74
2024/04/05 10:52:58;;;;;;;7.47;2.73;;;;;;;22.12;39.70;100700.05;123821;1099;104172;-72
2024/04/05 10:55:28;;;;;;;8.43;3.00;;;;;;;22.20;40.21;100699.06;124136;1099;104426;-74
2024/04/05 10:58:07;;;;;;;8.10;2.53;;;;;;;22.28;39.71;100698.12;124370;1099;104235;-73
2024/04/05 11:00:38;;;;;;;11.13;2.80;;;;;;;22.38;39.49;100691.83;124116;1099;104767;-72
2024/04/05 11:03:10;;;;;;;4.60;2.60;;;;;;;22.46;39.56;100694.42;124733;1099;104219;-73
2024/04/05 11:05:44;;;;;;;5.63;2.70;;;;;;;22.54;39.44;100685.40;124331;1099;104175;-72
2024/04/05 11:08:17;;;;;;;4.78;2.70;;;;;;;22.62;39.14;100696.02;124440;1098;104338;-75
2024/04/05 11:10:47;;;;;;;7.35;2.67;;;;;;;22.66;39.32;100694.19;124013;1099;104229;-72
2024/04/05 11:13:20;;;;;;;8.47;2.70;;;;;;;22.88;39.45;100697.52;124357;1099;101891;-74
2024/04/05 11:16:02;;;;;;;5.22;2.60;;;;;;;23.06;39.10;100691.04;124244;1099;104223;-74
2024/04/05 11:18:41;;;;;;;4.00;2.20;;;;;;;23.07;38.89;100693.70;124704;1099;104264;-73
2024/04/05 11:21:21;;;;;;;4.17;2.50;;;;;;;23.22;38.87;100697.10;124581;1099;104165;-72
2024/04/05 11:23:54;;;;;;;10.13;2.63;;;;;;;23.19;38.90;100690.02;125618;1098;102689;-73
2024/04/05 11:26:30;;;;;;;9.50;2.50;;;;;;;23.17;38.41;100697.20;124244;1099;104306;-73